Haynesville, Louisiana
Current Conditions -  °F | °C
As of 10:14 AM on Monday 29 Dec 2014 (Local Time) from KMNE Reporting Station
Overcast Overcast  
Wind Chill: 45°   Ceiling: 600
Heat Index: 45°   Visibility: 10mi
Dew Point: 41°   Wind: 0mph
Humidity: 87%   Direction: NA
Pressure: 30.23"   Gusts: NA
Location:  32.96°N, 93.14°W
Report Text: KMNE 291614Z AUTO 00000KT 10SM OVC006 07/05 A3023 RMK AO2
Loading
Personal Weather Stations






























Interactive Weather Map New forecast layout! Learn more

10-Day Weather Forecast

Advertisements
Track Severe Weather on mobile